Time;durP1;ratioP1;P1;durP2;ratioP2;P2;SDS_P1;SDS_P2;PMS_P1;PMS_P2;Temp;Humidity;BMP_temperature;BMP_pressure;BME280_temperature;BME280_humidity;BME280_pressure;Samples;Min_cycle;Max_cycle;Signal;HPM_P1;HPM_P2
2022/09/04 00:01:02;;;;;;;5.57;5.07;;;;;;;17.53;77.22;96790.41;5073504;28;20094;-60
2022/09/04 00:03:39;;;;;;;12.00;5.40;;;;;;;17.53;77.41;96798.34;5073576;28;20105;-60
2022/09/04 00:06:15;;;;;;;8.13;5.32;;;;;;;17.52;77.66;96797.50;5072555;28;20048;-60
2022/09/04 00:08:56;;;;;;;6.25;5.30;;;;;;;17.56;77.93;96808.75;5067786;28;20135;-59
2022/09/04 00:11:36;;;;;;;5.60;5.00;;;;;;;17.63;77.46;96811.84;5053277;28;20049;-60
2022/09/04 00:14:09;;;;;;;8.00;5.07;;;;;;;17.62;77.59;96807.50;5053391;28;20053;-60
2022/09/04 00:16:44;;;;;;;8.40;5.32;;;;;;;17.66;77.64;96817.81;5053774;28;20045;-59
2022/09/04 00:19:19;;;;;;;6.57;5.15;;;;;;;17.61;77.53;96813.75;5055472;28;20045;-61
2022/09/04 00:21:53;;;;;;;9.10;4.95;;;;;;;17.53;77.50;96824.78;5072873;28;20410;-61
2022/09/04 00:24:25;;;;;;;7.70;5.30;;;;;;;17.53;77.50;96824.78;5073189;28;20086;-60
2022/09/04 00:26:59;;;;;;;11.45;5.90;;;;;;;17.55;78.13;96817.63;5069505;28;20056;-59
2022/09/04 00:29:38;;;;;;;5.60;4.90;;;;;;;17.60;78.19;96823.47;5054061;28;20395;-59
2022/09/04 00:32:17;;;;;;;10.80;6.05;;;;;;;17.63;77.78;96822.41;5053136;28;20153;-61
2022/09/04 00:35:01;;;;;;;9.27;5.30;;;;;;;17.60;77.06;96830.53;5053031;28;20041;-59
2022/09/04 00:37:35;;;;;;;7.47;5.13;;;;;;;17.55;76.92;96833.50;5062525;28;20123;-60
2022/09/04 00:40:07;;;;;;;8.25;5.03;;;;;;;17.51;77.62;96829.31;5072980;28;20044;-59
2022/09/04 00:43:05;;;;;;;11.30;5.00;;;;;;;17.51;78.35;96838.13;5072974;28;20049;-59
2022/09/04 00:45:57;;;;;;;7.47;4.95;;;;;;;17.51;78.07;96837.25;5071191;28;20045;-58
2022/09/04 00:48:46;;;;;;;6.15;5.22;;;;;;;17.54;78.54;96837.06;5070576;28;20106;-60
2022/09/04 00:51:22;;;;;;;6.03;5.25;;;;;;;17.53;78.55;96846.81;5072912;28;20041;-60
2022/09/04 00:54:08;;;;;;;7.93;4.60;;;;;;;17.53;78.79;96844.16;5072883;28;20040;-60
2022/09/04 00:57:05;;;;;;;7.50;4.72;;;;;;;17.49;78.12;96847.91;5073035;28;20086;-58
2022/09/04 00:59:52;;;;;;;7.93;5.30;;;;;;;17.48;78.07;96858.59;5071124;28;20137;-59
2022/09/04 01:02:32;;;;;;;9.80;5.68;;;;;;;17.44;78.22;96855.31;5072880;28;20102;-59
2022/09/04 01:05:08;;;;;;;6.55;5.13;;;;;;;17.47;78.22;96855.13;5072876;28;20045;-59
2022/09/04 01:07:47;;;;;;;9.95;5.72;;;;;;;17.46;78.25;96853.41;5072743;28;20494;-61
2022/09/04 01:10:30;;;;;;;6.15;4.78;;;;;;;17.46;78.01;96865.78;5052478;28;20529;-61
2022/09/04 01:13:03;;;;;;;6.00;5.15;;;;;;;17.38;78.05;96869.75;5052655;28;20063;-60
2022/09/04 01:15:38;;;;;;;6.25;5.50;;;;;;;17.33;77.94;96869.16;5052768;28;20091;-60
2022/09/04 01:18:11;;;;;;;5.75;4.75;;;;;;;17.36;77.77;96871.63;5067013;28;20044;-60
2022/09/04 01:20:51;;;;;;;6.03;4.78;;;;;;;17.29;76.65;96879.09;5076416;28;20123;-59
2022/09/04 01:23:53;;;;;;;6.88;5.53;;;;;;;17.19;77.81;96875.31;5076344;28;20076;-59
2022/09/04 01:26:27;;;;;;;8.20;4.85;;;;;;;17.24;77.82;96875.84;5067390;28;20046;-60
2022/09/04 01:29:10;;;;;;;7.68;5.28;;;;;;;17.18;77.88;96882.38;5074144;28;20048;-60
2022/09/04 01:31:48;;;;;;;7.82;5.30;;;;;;;17.15;77.81;96879.03;5076218;28;20102;-59
2022/09/04 01:34:32;;;;;;;11.90;5.20;;;;;;;17.13;77.68;96883.59;5076265;28;20408;-59
2022/09/04 01:37:12;;;;;;;6.47;5.32;;;;;;;17.10;77.88;96886.41;5076176;28;20456;-59
2022/09/04 01:39:42;;;;;;;10.00;5.75;;;;;;;17.05;77.62;96884.00;5072764;28;20409;-60
2022/09/04 01:42:17;;;;;;;5.50;4.88;;;;;;;17.04;77.80;96884.94;5056036;28;20481;-59
2022/09/04 01:44:45;;;;;;;7.53;4.65;;;;;;;17.02;77.58;96879.75;5055981;28;20075;-60
2022/09/04 01:47:22;;;;;;;6.97;5.20;;;;;;;16.98;78.00;96880.03;5056160;28;20084;-59
2022/09/04 01:49:57;;;;;;;8.00;5.32;;;;;;;16.95;78.30;96875.78;5070441;28;20079;-59
2022/09/04 01:52:38;;;;;;;9.60;5.63;;;;;;;16.96;77.80;96871.31;5075490;28;20048;-60
2022/09/04 01:55:22;;;;;;;6.03;5.32;;;;;;;16.89;77.96;96876.97;5075827;28;20532;-58
2022/09/04 01:58:10;;;;;;;9.48;4.82;;;;;;;16.84;77.95;96870.25;5075836;28;20063;-61
2022/09/04 02:00:49;;;;;;;6.30;5.18;;;;;;;16.78;77.95;96867.03;5073863;28;20128;-61
2022/09/04 02:03:22;;;;;;;10.13;5.60;;;;;;;16.75;77.83;96869.00;5075839;28;20048;-59
2022/09/04 02:06:01;;;;;;;11.15;4.95;;;;;;;16.70;77.85;96863.16;5075557;28;20045;-60
2022/09/04 02:08:41;;;;;;;5.40;4.90;;;;;;;16.61;78.34;96873.28;5061090;28;20048;-59
2022/09/04 02:11:14;;;;;;;7.40;4.85;;;;;;;16.60;78.31;96868.94;5055654;28;20111;-60
2022/09/04 02:14:05;;;;;;;8.00;5.40;;;;;;;16.59;78.41;96867.25;5055448;28;20135;-60
2022/09/04 02:16:44;;;;;;;8.65;5.20;;;;;;;16.57;78.66;96865.63;5055107;28;20052;-60
2022/09/04 02:19:22;;;;;;;6.88;5.18;;;;;;;16.55;78.40;96865.72;5055410;28;20048;-60
2022/09/04 02:21:56;;;;;;;7.45;4.57;;;;;;;16.47;78.20;96867.94;5055324;28;20473;-59
2022/09/04 02:24:30;;;;;;;5.80;5.30;;;;;;;16.29;78.78;96855.69;5055327;28;20136;-59
2022/09/04 02:27:04;;;;;;;6.97;5.07;;;;;;;16.25;78.85;96855.94;5055014;28;20049;-61
2022/09/04 02:29:40;;;;;;;5.65;5.00;;;;;;;16.26;78.64;96868.22;5054484;28;20102;-62
2022/09/04 02:32:17;;;;;;;7.35;4.60;;;;;;;16.19;78.26;96862.41;5055158;28;20406;-61
2022/09/04 02:34:54;;;;;;;6.68;5.47;;;;;;;16.14;78.24;96860.03;5055129;28;20048;-61
2022/09/04 02:37:28;;;;;;;6.93;5.13;;;;;;;16.12;78.15;96866.34;5057478;28;20126;-59
2022/09/04 02:40:03;;;;;;;7.63;5.60;;;;;;;16.10;77.49;96865.59;5055021;28;20037;-59
2022/09/04 02:42:43;;;;;;;8.20;5.00;;;;;;;15.99;77.39;96864.41;5054937;28;20049;-60
2022/09/04 02:45:21;;;;;;;6.85;5.28;;;;;;;15.89;78.14;96863.13;5055244;28;20049;-61
2022/09/04 02:47:53;;;;;;;8.10;5.80;;;;;;;15.81;79.35;96863.56;5074713;28;20052;-61
2022/09/04 02:50:32;;;;;;;7.07;5.30;;;;;;;15.69;80.13;96866.88;5074822;28;20135;-61
2022/09/04 02:53:10;;;;;;;7.75;5.90;;;;;;;15.69;80.15;96872.13;5074791;28;20083;-59
2022/09/04 02:55:57;;;;;;;8.35;5.80;;;;;;;15.66;80.57;96871.34;5073058;28;20048;-60
2022/09/04 02:58:33;;;;;;;6.13;5.05;;;;;;;15.63;79.55;96866.25;5054699;28;20056;-60
2022/09/04 03:01:07;;;;;;;7.20;6.18;;;;;;;15.51;80.23;96869.56;5054570;28;20132;-60
2022/09/04 03:03:42;;;;;;;10.55;5.10;;;;;;;15.51;80.36;96870.38;5054524;28;20136;-61
2022/09/04 03:06:12;;;;;;;7.75;5.30;;;;;;;15.55;79.55;96863.19;5055302;28;20106;-60
2022/09/04 03:08:45;;;;;;;7.05;5.10;;;;;;;15.56;78.76;96866.69;5058848;28;20479;-60
2022/09/04 03:11:18;;;;;;;9.00;5.13;;;;;;;15.53;78.60;96868.53;5074275;28;20528;-59
2022/09/04 03:13:52;;;;;;;10.23;5.90;;;;;;;15.48;78.69;96875.84;5074221;28;20083;-60
2022/09/04 03:16:27;;;;;;;7.10;5.55;;;;;;;15.41;78.89;96877.94;5074030;28;20057;-59
2022/09/04 03:19:05;;;;;;;8.57;5.32;;;;;;;15.35;78.61;96872.97;5072265;28;20056;-60
2022/09/04 03:21:39;;;;;;;9.68;5.38;;;;;;;15.33;78.61;96877.50;5074088;28;20055;-61
2022/09/04 03:24:14;;;;;;;5.38;4.80;;;;;;;15.33;78.13;96877.50;5074114;28;20075;-59
2022/09/04 03:26:43;;;;;;;8.48;5.60;;;;;;;15.22;78.10;96883.31;5073901;28;20099;-59
2022/09/04 03:29:23;;;;;;;8.40;5.65;;;;;;;15.16;78.20;96895.03;5056173;28;20045;-59
2022/09/04 03:32:05;;;;;;;6.45;5.60;;;;;;;15.13;78.47;96892.56;5054040;28;20402;-59
2022/09/04 03:34:47;;;;;;;8.52;6.43;;;;;;;15.08;79.37;96885.81;5053942;28;20045;-59
2022/09/04 03:37:27;;;;;;;9.93;5.20;;;;;;;15.11;78.84;96883.84;5053964;28;20516;-58
2022/09/04 03:40:13;;;;;;;6.63;5.95;;;;;;;15.10;79.09;96891.84;5072825;28;20048;-59
2022/09/04 03:42:55;;;;;;;8.00;5.70;;;;;;;15.06;79.42;96893.78;5073732;28;20139;-59
2022/09/04 03:45:30;;;;;;;10.85;5.75;;;;;;;15.02;79.57;96894.88;5073830;28;20049;-60
2022/09/04 03:48:18;;;;;;;11.55;6.03;;;;;;;15.01;80.11;96894.03;5073601;28;20045;-60
2022/09/04 03:50:53;;;;;;;7.57;6.78;;;;;;;14.95;80.29;96898.72;5053605;28;20049;-58
2022/09/04 03:53:32;;;;;;;7.75;6.30;;;;;;;14.94;80.82;96908.44;5053665;28;20041;-59
2022/09/04 03:56:38;;;;;;;6.90;6.20;;;;;;;14.99;81.13;96916.09;5053635;28;20044;-58
2022/09/04 03:59:07;;;;;;;13.32;6.60;;;;;;;15.00;81.22;96915.16;5011428;28;20072;-58
2022/09/04 04:01:45;;;;;;;6.68;6.07;;;;;;;15.07;81.37;96919.19;5046701;28;20076;-59
2022/09/04 04:04:51;;;;;;;9.70;6.35;;;;;;;15.10;80.97;96921.69;5053612;28;20446;-60
2022/09/04 04:07:29;;;;;;;11.02;6.18;;;;;;;15.17;81.22;96916.94;5056110;28;20048;-59
2022/09/04 04:10:12;;;;;;;7.70;6.45;;;;;;;15.15;81.78;96918.81;5073409;28;20052;-59
2022/09/04 04:12:57;;;;;;;8.00;7.18;;;;;;;15.19;82.04;96916.88;5073291;28;20091;-61
2022/09/04 04:15:51;;;;;;;8.25;6.78;;;;;;;15.21;82.25;96923.78;5073344;28;20045;-60
2022/09/04 04:18:47;;;;;;;8.60;7.70;;;;;;;15.27;83.03;96919.97;5064376;28;20244;-61
2022/09/04 04:21:29;;;;;;;9.68;6.97;;;;;;;15.34;83.56;96929.28;5053284;28;20128;-59
2022/09/04 04:24:08;;;;;;;;;;;;;;;15.41;83.65;96928.03;5053548;28;20045;-60
2022/09/04 04:26:53;;;;;;;9.90;8.90;;;;;;;15.38;83.67;96930.81;5060502;28;19974;-59
2022/09/04 04:29:39;;;;;;;11.70;8.30;;;;;;;15.42;83.82;96931.53;5073193;28;20616;-60
2022/09/04 04:32:38;;;;;;;12.15;8.80;;;;;;;15.39;84.06;96943.06;5073156;28;20102;-60
2022/09/04 04:35:17;;;;;;;10.48;8.35;;;;;;;15.38;84.15;96933.44;5070729;28;20391;-60
2022/09/04 04:37:58;;;;;;;8.65;7.78;;;;;;;15.50;84.27;96933.75;5070361;28;20146;-60
2022/09/04 04:40:40;;;;;;;9.90;8.45;;;;;;;15.61;83.61;96935.81;5072610;28;20129;-59
2022/09/04 04:43:18;;;;;;;8.38;7.53;;;;;;;15.69;83.14;96941.56;5073108;28;20068;-60
2022/09/04 04:45:51;;;;;;;9.07;7.63;;;;;;;15.82;83.20;96948.81;5061127;28;20076;-60
2022/09/04 04:49:03;;;;;;;7.32;6.63;;;;;;;15.97;81.93;96957.72;5052711;28;20132;-60
2022/09/04 04:51:54;;;;;;;8.20;5.93;;;;;;;16.01;79.90;96956.63;5040073;28;20041;-59
2022/09/04 04:54:42;;;;;;;6.18;5.30;;;;;;;16.01;78.76;96956.63;5052384;28;20103;-59
2022/09/04 04:57:22;;;;;;;6.85;4.93;;;;;;;16.03;78.94;96954.78;5056917;28;20048;-60
2022/09/04 05:00:02;;;;;;;9.95;6.88;;;;;;;16.10;77.78;96957.94;5056807;28;20501;-60
2022/09/04 05:02:35;;;;;;;6.18;5.57;;;;;;;16.15;77.53;96954.13;5056784;28;20124;-60
2022/09/04 05:05:12;;;;;;;5.15;4.68;;;;;;;16.23;77.54;96952.84;5056744;28;20076;-61
2022/09/04 05:07:48;;;;;;;9.05;4.53;;;;;;;16.34;76.88;96957.53;5056636;28;20052;-60
2022/09/04 05:10:21;;;;;;;7.30;5.18;;;;;;;16.49;77.36;96967.25;5056594;28;20068;-60
2022/09/04 05:12:59;;;;;;;5.60;4.88;;;;;;;16.79;76.66;96971.75;5056642;28;20048;-61
2022/09/04 05:15:34;;;;;;;6.20;5.05;;;;;;;17.01;75.45;96980.25;5056472;28;20080;-60
2022/09/04 05:18:09;;;;;;;9.35;4.38;;;;;;;17.29;74.17;96986.63;5076532;28;20052;-60
2022/09/04 05:20:42;;;;;;;4.80;4.30;;;;;;;17.58;73.38;96996.41;5076122;28;20044;-61
2022/09/04 05:23:24;;;;;;;5.53;4.55;;;;;;;17.61;70.92;96994.44;5076362;28;20048;-60
2022/09/04 05:25:57;;;;;;;4.60;3.95;;;;;;;17.67;70.96;96990.59;5075340;28;20509;-60
2022/09/04 05:28:39;;;;;;;4.60;4.20;;;;;;;17.74;71.15;96991.06;5056208;28;20135;-59
2022/09/04 05:31:17;;;;;;;5.70;4.57;;;;;;;17.75;70.87;96995.41;5056195;28;20049;-60
2022/09/04 05:33:56;;;;;;;5.47;4.68;;;;;;;17.67;70.67;96993.25;5056333;28;20052;-60
2022/09/04 05:36:35;;;;;;;5.28;4.78;;;;;;;17.77;71.10;96999.69;5056709;28;20128;-59
2022/09/04 05:39:10;;;;;;;4.97;4.47;;;;;;;17.85;71.47;97001.84;5056197;28;20402;-59
2022/09/04 05:41:47;;;;;;;6.15;4.55;;;;;;;17.92;70.59;97002.34;5056059;28;20041;-59
2022/09/04 05:44:35;;;;;;;5.22;4.70;;;;;;;18.04;70.56;96991.00;5055950;28;20045;-60
2022/09/04 05:47:13;;;;;;;5.15;4.65;;;;;;;18.15;69.95;96995.66;5060213;28;20048;-60
2022/09/04 05:49:59;;;;;;;5.03;4.22;;;;;;;18.27;69.99;97001.16;5075941;28;20402;-60
2022/09/04 05:52:51;;;;;;;6.28;4.55;;;;;;;18.38;69.60;97003.97;5075987;28;20490;-60
2022/09/04 05:55:43;;;;;;;5.07;4.10;;;;;;;18.47;69.84;97004.31;5075815;28;20094;-60
2022/09/04 05:58:26;;;;;;;5.22;4.40;;;;;;;18.59;68.90;97019.47;5073776;28;20094;-60
2022/09/04 06:01:08;;;;;;;5.63;5.13;;;;;;;18.60;67.28;97017.66;5075008;28;20080;-60
2022/09/04 06:04:06;;;;;;;6.47;3.95;;;;;;;18.64;68.02;97013.88;5074874;28;20088;-61
2022/09/04 06:06:44;;;;;;;7.55;5.07;;;;;;;18.70;68.59;97021.44;5075751;28;20498;-61
2022/09/04 06:09:32;;;;;;;7.38;5.15;;;;;;;18.80;68.58;97021.69;5059376;28;20406;-60
2022/09/04 06:12:21;;;;;;;7.72;4.88;;;;;;;18.93;67.40;97027.91;5055508;28;20052;-60
2022/09/04 06:15:16;;;;;;;4.82;4.03;;;;;;;19.03;66.64;97030.78;5055467;28;20156;-60
2022/09/04 06:18:07;;;;;;;4.97;4.13;;;;;;;19.17;66.18;97029.06;5055559;28;20476;-59
2022/09/04 06:20:45;;;;;;;4.97;4.47;;;;;;;19.27;65.85;97029.34;5074766;28;20560;-62
2022/09/04 06:23:38;;;;;;;9.65;4.18;;;;;;;19.53;64.89;97016.13;5075238;28;20044;-61
2022/09/04 06:26:20;;;;;;;4.28;3.88;;;;;;;19.81;63.26;97016.94;5064596;28;20444;-61
2022/09/04 06:29:17;;;;;;;4.95;4.25;;;;;;;20.04;63.38;97015.38;5055095;28;20098;-60
2022/09/04 06:32:08;;;;;;;6.75;4.47;;;;;;;20.29;62.08;97003.03;5055115;28;20045;-60
2022/09/04 06:35:09;;;;;;;4.22;3.85;;;;;;;20.45;61.57;96999.31;5071595;28;20037;-60
2022/09/04 06:37:41;;;;;;;;;;;;;;;20.65;61.86;96997.03;5055367;28;20080;-59
2022/09/04 06:40:25;;;;;;;4.15;3.75;;;;;;;21.00;59.35;96998.97;5055054;28;19927;-60
2022/09/04 06:43:07;;;;;;;3.58;3.28;;;;;;;21.46;56.57;97004.47;5055037;28;20045;-60
2022/09/04 06:45:49;;;;;;;4.55;3.70;;;;;;;22.08;56.65;97017.59;5056874;28;20894;-61
2022/09/04 06:48:28;;;;;;;4.35;3.88;;;;;;;22.13;54.54;97018.09;5074749;28;20106;-61
2022/09/04 06:51:08;;;;;;;6.75;3.90;;;;;;;22.45;53.91;97020.03;5074863;28;20049;-60
2022/09/04 06:53:41;;;;;;;4.20;3.80;;;;;;;22.50;53.72;97011.69;5074942;28;20053;-61
2022/09/04 06:56:37;;;;;;;6.53;3.65;;;;;;;22.97;53.79;97008.00;5067439;28;20053;-61
2022/09/04 06:59:25;;;;;;;4.43;3.55;;;;;;;23.10;53.94;97005.19;5054662;28;20041;-60
2022/09/04 07:02:03;;;;;;;3.72;3.33;;;;;;;23.07;53.54;97006.28;5054835;28;20406;-60
2022/09/04 07:04:44;;;;;;;4.75;4.00;;;;;;;22.93;54.83;97012.72;5074524;28;20074;-60
2022/09/04 07:07:22;;;;;;;5.35;3.90;;;;;;;22.85;54.44;97021.34;5067814;28;20049;-60
2022/09/04 07:09:54;;;;;;;5.63;3.50;;;;;;;22.58;54.16;97022.59;5059288;28;20111;-60
2022/09/04 07:12:40;;;;;;;6.93;3.70;;;;;;;22.34;54.93;97004.88;5054018;28;20461;-60
2022/09/04 07:15:43;;;;;;;10.43;3.70;;;;;;;22.22;55.06;97022.69;5054023;28;20479;-60
2022/09/04 07:18:23;;;;;;;4.15;3.47;;;;;;;22.26;55.24;97007.31;5053923;28;20079;-60
2022/09/04 07:21:02;;;;;;;3.67;3.38;;;;;;;22.46;55.90;97003.06;5056289;28;20091;-60
2022/09/04 07:23:43;;;;;;;3.92;3.63;;;;;;;22.61;55.87;97002.00;5054196;28;20495;-61
2022/09/04 07:26:20;;;;;;;6.47;3.75;;;;;;;22.72;55.41;97004.66;5054094;28;20403;-60
2022/09/04 07:29:18;;;;;;;5.85;4.03;;;;;;;22.76;53.69;96995.47;5056367;28;20124;-60
2022/09/04 07:31:54;;;;;;;4.75;3.80;;;;;;;22.70;54.17;97002.09;5074103;28;20048;-60
2022/09/04 07:34:26;;;;;;;5.97;3.92;;;;;;;22.64;53.34;96991.09;5073879;28;20132;-60
2022/09/04 07:36:58;;;;;;;4.93;4.05;;;;;;;22.54;55.28;96994.47;5072928;28;20049;-60
2022/09/04 07:39:37;;;;;;;5.95;4.13;;;;;;;22.52;55.21;97003.56;5053949;28;20072;-60
2022/09/04 07:42:13;;;;;;;4.68;4.00;;;;;;;22.47;56.06;96999.44;5053450;28;20048;-60
2022/09/04 07:44:50;;;;;;;6.68;3.78;;;;;;;22.38;55.99;97001.97;5053713;28;20544;-60
2022/09/04 07:47:23;;;;;;;4.07;3.67;;;;;;;22.30;55.85;96999.91;5057356;28;20470;-60
2022/09/04 07:50:01;;;;;;;3.70;3.40;;;;;;;22.28;55.61;96992.06;5073468;28;20048;-60
2022/09/04 07:52:49;;;;;;;3.40;3.10;;;;;;;22.27;56.63;96997.53;5071413;28;20048;-60
2022/09/04 07:55:35;;;;;;;6.53;3.05;;;;;;;22.28;56.88;97000.06;5073557;28;20487;-59
2022/09/04 07:58:38;;;;;;;8.80;3.58;;;;;;;22.19;58.17;96990.97;5060928;28;20494;-60
2022/09/04 08:01:29;;;;;;;5.50;3.60;;;;;;;21.92;56.45;96991.31;5053419;28;20048;-60
2022/09/04 08:04:20;;;;;;;4.68;3.45;;;;;;;21.52;57.73;96989.88;5053521;28;20107;-60
2022/09/04 08:06:53;;;;;;;6.10;3.58;;;;;;;21.14;59.39;96995.28;5053926;28;20135;-59
2022/09/04 08:09:51;;;;;;;4.32;3.92;;;;;;;20.93;59.82;96995.91;5072210;28;20460;-59
2022/09/04 08:12:32;;;;;;;4.45;4.03;;;;;;;20.75;61.01;96999.88;5073274;28;20040;-59
2022/09/04 08:15:14;;;;;;;4.43;3.97;;;;;;;20.67;60.88;97000.41;5073204;28;20051;-60
2022/09/04 08:18:20;;;;;;;4.85;4.35;;;;;;;20.55;60.72;97002.16;5063581;28;20617;-60
2022/09/04 08:20:55;;;;;;;4.50;4.10;;;;;;;20.55;62.48;97007.47;5052341;28;20076;-59
2022/09/04 08:23:41;;;;;;;4.80;4.40;;;;;;;20.69;62.39;97012.66;5053073;28;20133;-59
2022/09/04 08:26:15;;;;;;;4.53;4.13;;;;;;;20.80;59.98;97011.03;5053002;28;20506;-60
2022/09/04 08:29:05;;;;;;;4.60;3.95;;;;;;;20.93;61.29;97013.66;5069486;28;20083;-60
2022/09/04 08:31:42;;;;;;;5.30;4.22;;;;;;;20.93;60.37;97013.66;5073245;28;20044;-60
2022/09/04 08:34:35;;;;;;;4.88;4.43;;;;;;;20.97;60.21;97009.81;5073093;28;20045;-59
2022/09/04 08:37:12;;;;;;;4.32;3.95;;;;;;;21.12;59.37;97015.81;5055877;28;20076;-60
2022/09/04 08:39:51;;;;;;;5.05;4.25;;;;;;;21.24;59.84;97013.19;5052652;28;20053;-59
2022/09/04 08:42:53;;;;;;;5.97;4.18;;;;;;;21.41;59.74;96996.84;5053043;28;20115;-60
2022/09/04 08:46:03;;;;;;;4.13;3.72;;;;;;;21.69;59.38;97001.88;5053750;28;20056;-60
2022/09/04 08:49:23;;;;;;;4.43;3.43;;;;;;;21.98;60.22;97001.50;5020159;28;20459;-59
2022/09/04 08:52:35;;;;;;;5.00;3.97;;;;;;;22.29;58.87;96999.09;5052997;28;20085;-59
2022/09/04 08:55:33;;;;;;;4.30;3.90;;;;;;;22.46;56.02;97010.22;5047165;28;20076;-60
2022/09/04 08:58:29;;;;;;;8.45;4.32;;;;;;;22.37;56.09;97013.63;5068335;28;20434;-60
2022/09/04 09:01:49;;;;;;;5.13;4.43;;;;;;;22.47;57.91;97015.44;5072724;28;20127;-60
2022/09/04 09:04:58;;;;;;;4.95;4.30;;;;;;;22.37;57.35;97010.97;5018729;28;20089;-60
2022/09/04 09:08:01;;;;;;;5.18;4.68;;;;;;;22.34;55.88;97009.38;5016081;28;20041;-60
2022/09/04 09:10:42;;;;;;;6.45;4.80;;;;;;;22.35;57.27;97003.09;5071023;28;20056;-61
2022/09/04 09:13:51;;;;;;;5.82;5.22;;;;;;;21.92;56.71;97009.94;5072702;28;20055;-60
2022/09/04 09:16:23;;;;;;;4.70;4.30;;;;;;;21.70;58.08;97008.88;5049088;28;20052;-60
2022/09/04 09:19:24;;;;;;;4.72;4.32;;;;;;;21.38;59.70;97005.06;5056493;28;20475;-60
2022/09/04 09:22:18;;;;;;;5.25;4.85;;;;;;;20.96;60.02;97002.81;5010913;28;20050;-60
2022/09/04 09:25:19;;;;;;;5.90;5.30;;;;;;;20.87;60.58;97000.78;5051450;28;20051;-60
2022/09/04 09:28:19;;;;;;;5.88;5.22;;;;;;;20.99;61.09;97007.91;5053562;28;20049;-60
2022/09/04 09:31:37;;;;;;;5.78;4.82;;;;;;;20.99;60.20;97013.22;5052630;28;20487;-60
2022/09/04 09:34:41;;;;;;;6.05;4.90;;;;;;;20.98;61.07;97019.47;5030414;28;20112;-60
2022/09/04 09:37:34;;;;;;;6.13;5.53;;;;;;;20.76;60.57;97023.69;5052428;28;20049;-60
2022/09/04 09:40:27;;;;;;;6.38;5.28;;;;;;;20.52;61.30;97026.28;5056010;28;20064;-61
2022/09/04 09:43:25;;;;;;;5.70;5.18;;;;;;;20.58;61.74;97020.53;5056047;28;20041;-60
2022/09/04 09:46:20;;;;;;;5.55;4.97;;;;;;;20.65;61.60;97021.78;5055351;28;20055;-60
2022/09/04 09:49:32;;;;;;;7.90;5.60;;;;;;;20.83;61.00;97027.59;5075844;28;20083;-60
2022/09/04 09:52:36;;;;;;;5.55;5.05;;;;;;;20.89;60.92;97039.56;5075523;28;20048;-60
2022/09/04 09:55:39;;;;;;;9.38;4.95;;;;;;;21.01;61.17;97037.88;5067578;28;20118;-60
2022/09/04 09:58:48;;;;;;;5.85;4.85;;;;;;;21.18;62.86;97038.44;5063005;28;20099;-60
2022/09/04 10:01:56;;;;;;;4.65;4.25;;;;;;;21.52;61.29;97032.44;5064208;28;20517;-60
2022/09/04 10:04:54;;;;;;;6.22;5.07;;;;;;;21.77;59.62;97031.47;5064266;28;20102;-60
2022/09/04 10:07:57;;;;;;;8.02;4.78;;;;;;;21.98;59.75;97038.78;5073760;28;20044;-60
2022/09/04 10:11:01;;;;;;;6.50;5.13;;;;;;;22.07;57.14;97043.38;5066684;28;20493;-60
2022/09/04 10:14:01;;;;;;;5.68;5.05;;;;;;;22.19;57.29;97044.22;5068734;28;20044;-63
2022/09/04 10:16:51;;;;;;;5.63;4.73;;;;;;;22.31;57.74;97041.59;5043110;28;20045;-64
2022/09/04 10:19:46;;;;;;;15.80;5.50;;;;;;;22.69;58.65;97037.75;5054716;28;20094;-65
2022/09/04 10:22:40;;;;;;;19.70;6.05;;;;;;;23.02;56.34;97040.47;5055644;28;20041;-63
2022/09/04 10:25:47;;;;;;;15.30;5.38;;;;;;;23.47;56.76;97019.97;5065337;28;20045;-65
2022/09/04 10:28:47;;;;;;;20.02;6.07;;;;;;;23.79;54.61;97015.59;5047493;28;20036;-69
2022/09/04 10:31:59;;;;;;;6.00;4.07;;;;;;;23.45;53.35;97008.59;5064053;28;20051;-64
2022/09/04 10:34:43;;;;;;;11.95;5.00;;;;;;;23.17;55.32;97006.34;5039427;28;20040;-67
2022/09/04 10:37:29;;;;;;;12.50;5.20;;;;;;;23.43;55.06;97008.72;5075034;28;20049;-65
2022/09/04 10:43:16;;;;;;;23.58;5.88;;;;;;;23.34;55.13;97010.31;5073433;28;20193;-63
2022/09/04 10:45:47;;;;;;;5.35;4.22;;;;;;;23.38;54.32;97010.91;5075082;28;20058;-63
2022/09/04 10:49:02;;;;;;;6.57;5.00;;;;;;;23.23;53.72;97008.53;5074757;28;20102;-63
2022/09/04 10:52:05;;;;;;;5.45;4.88;;;;;;;22.97;55.65;97008.84;5032087;28;20053;-63
2022/09/04 10:55:07;;;;;;;4.72;4.32;;;;;;;23.17;56.05;97010.84;5032739;28;20136;-63
2022/09/04 10:57:49;;;;;;;8.13;4.78;;;;;;;23.53;55.88;97002.59;5054767;28;20402;-67
2022/09/04 11:00:19;;;;;;;4.88;4.43;;;;;;;23.90;52.95;97007.50;5055596;28;20106;-65
2022/09/04 11:03:15;;;;;;;4.93;4.43;;;;;;;24.25;53.03;97001.94;5054426;28;20045;-65
2022/09/04 11:06:22;;;;;;;4.75;4.35;;;;;;;24.52;51.92;96992.47;5050117;28;20091;-65
2022/09/04 11:09:14;;;;;;;7.20;4.00;;;;;;;24.81;52.17;96983.72;5053897;28;20084;-65
2022/09/04 11:11:59;;;;;;;5.15;4.38;;;;;;;24.97;50.98;96965.31;5065831;28;20093;-64
2022/09/04 11:15:02;;;;;;;5.70;4.53;;;;;;;24.94;51.04;96962.06;5074044;28;20048;-63
2022/09/04 11:17:58;;;;;;;5.47;3.90;;;;;;;24.91;47.94;96970.38;5074383;28;20135;-65
2022/09/04 11:21:06;;;;;;;3.88;3.58;;;;;;;24.45;48.85;96976.16;5054139;28;20079;-60
2022/09/04 11:24:05;;;;;;;6.97;4.40;;;;;;;24.12;49.38;96970.94;5054213;28;20056;-62
2022/09/04 11:27:08;;;;;;;5.93;3.85;;;;;;;24.06;51.11;96974.13;5054172;28;20462;-67
2022/09/04 11:30:01;;;;;;;6.45;4.30;;;;;;;24.12;51.96;96957.56;5054784;28;20053;-64
2022/09/04 11:33:14;;;;;;;5.38;4.10;;;;;;;24.47;52.83;96958.16;5052314;28;20049;-59
2022/09/04 11:36:09;;;;;;;4.05;3.70;;;;;;;24.99;51.78;96963.34;5054636;28;20049;-59
2022/09/04 11:39:22;;;;;;;4.65;4.07;;;;;;;24.94;48.63;96957.56;5054193;28;20084;-59
2022/09/04 11:42:28;;;;;;;5.95;3.75;;;;;;;24.55;48.72;96952.09;5035056;28;20041;-58
2022/09/04 11:45:32;;;;;;;4.20;3.80;;;;;;;24.49;50.06;96950.84;5054231;28;20041;-57
2022/09/04 11:48:25;;;;;;;4.78;4.15;;;;;;;24.08;51.10;96962.31;5055174;28;20045;-58
2022/09/04 11:51:19;;;;;;;4.82;4.28;;;;;;;23.82;51.98;96962.78;5055003;28;20490;-60
2022/09/04 11:54:13;;;;;;;4.72;4.28;;;;;;;23.76;52.22;96963.28;5054163;28;20049;-57
2022/09/04 11:56:58;;;;;;;5.30;4.25;;;;;;;23.45;53.36;96957.91;5050274;28;20127;-56
2022/09/04 11:59:47;;;;;;;4.53;4.13;;;;;;;23.18;52.77;96949.34;5065081;28;20051;-60
2022/09/04 12:02:49;;;;;;;4.85;4.43;;;;;;;23.31;54.57;96937.66;5072623;28;20103;-57
2022/09/04 12:05:39;;;;;;;4.18;3.78;;;;;;;23.14;53.47;96939.09;5017802;28;20096;-57
2022/09/04 12:08:24;;;;;;;5.33;4.40;;;;;;;23.13;55.31;96934.72;5073702;28;20048;-55
2022/09/04 12:11:00;;;;;;;7.40;4.35;;;;;;;23.14;53.92;96929.25;5073222;28;20056;-59
2022/09/04 12:13:56;;;;;;;7.95;4.25;;;;;;;23.26;55.75;96919.38;5073485;28;20407;-59
2022/09/04 12:17:09;;;;;;;5.10;4.32;;;;;;;23.06;54.09;96919.22;5069436;28;20048;-59
2022/09/04 12:20:22;;;;;;;14.15;4.72;;;;;;;22.85;55.34;96922.69;5065459;28;20041;-60
2022/09/04 12:23:31;;;;;;;7.38;4.65;;;;;;;22.83;54.63;96926.47;5054103;28;20405;-60
2022/09/04 12:26:26;;;;;;;5.47;4.22;;;;;;;22.94;53.71;96925.59;5046861;28;20048;-57
2022/09/04 12:29:22;;;;;;;4.82;4.32;;;;;;;22.99;54.37;96912.69;5053157;28;20049;-57
2022/09/04 12:32:15;;;;;;;6.93;4.15;;;;;;;23.15;54.02;96914.09;5053178;28;20136;-56
2022/09/04 12:35:25;;;;;;;6.38;4.53;;;;;;;23.31;53.58;96913.66;5053680;28;20402;-59
2022/09/04 12:38:36;;;;;;;4.72;4.25;;;;;;;23.50;54.34;96914.81;5053936;28;20407;-57
2022/09/04 12:41:15;;;;;;;7.60;4.30;;;;;;;23.52;50.17;96911.03;5073870;28;20104;-57
2022/09/04 12:43:54;;;;;;;4.70;4.18;;;;;;;23.34;52.42;96908.91;5074464;28;20497;-58
2022/09/04 12:46:39;;;;;;;4.13;3.75;;;;;;;23.32;51.67;96902.00;5074062;28;20048;-57
2022/09/04 12:49:26;;;;;;;4.80;4.00;;;;;;;23.36;51.43;96906.13;5062098;28;20045;-57
2022/09/04 12:52:08;;;;;;;4.38;3.97;;;;;;;23.30;51.44;96901.28;5054171;28;20041;-58
2022/09/04 12:54:47;;;;;;;3.83;3.53;;;;;;;23.19;52.03;96902.19;5054217;28;20068;-57
2022/09/04 12:57:32;;;;;;;5.18;3.78;;;;;;;22.87;52.56;96903.91;5053836;28;20048;-56
2022/09/04 13:00:09;;;;;;;4.15;3.75;;;;;;;22.79;51.93;96909.84;5054659;28;20095;-56
2022/09/04 13:02:54;;;;;;;4.07;3.53;;;;;;;22.77;53.29;96905.63;5054359;28;20045;-57
2022/09/04 13:05:50;;;;;;;3.78;3.47;;;;;;;22.72;53.35;96908.66;5054291;28;20067;-57